Latest Weather Observations for Cooma Airport

IDN60901

Issued at 3:32 pm EDT Wednesday 4 March 2015 (issued every 10 minutes, with the page automatically refreshed every 10 minutes)

About weather observations | Map of Canberra area stations | Latest observations for Canberra area | Other Formats
Station Details ID: 070217 Name: COOMA AIRPORT AWS Lat: -36.29 Lon: 148.97 Height: 930.0 m
Data from the previous 72 hours. | See also: Recent months for locations in Aust Capital Territory
Date/Time
EDT
Tmp

°C
App
Tmp
°C
Dew
Point
°C
Rel
Hum
%
Delta-T

°C
Wind Press
QNH
hPa
Press
MSL
hPa
Rain
since
9 am
mm
Dir
 
Spd
km/h
Gust
km/h
Spd
kts
Gust
kts
04/03:30pm 26.4 21.5 -0.6 17 13.0 WNW 15 26 8 14 1012.0 1009.0 0.0
04/03:00pm 26.0 21.8 3.9 24 11.5 SW 15 24 8 13 1012.3 1009.3 0.0
04/02:30pm 25.9 22.8 3.8 24 11.5 SW 9 19 5 10 1012.5 1009.6 0.0
04/02:00pm 24.7 21.5 5.0 28 10.4 ENE 11 17 6 9 1013.2 1010.2 0.0
04/01:30pm 23.7 21.6 8.2 37 8.6 ENE 9 20 5 11 1013.5 1010.6 0.0
04/01:00pm 22.8 20.9 9.2 42 7.6 NE 9 15 5 8 1014.1 1011.2 0.0
04/12:30pm 21.3 20.3 11.1 52 5.9 NNE 7 11 4 6 1014.5 1011.6 0.0
04/11:33am 15.5 14.7 13.0 85 1.5 SW 9 13 5 7 1016.0 1013.1 0.0
04/11:30am 15.1 14.4 13.3 89 1.0 SW 9 13 5 7 1016.1 1013.2 0.0
04/11:00am 12.8 11.1 12.6 99 0.1 SSW 13 15 7 8 1016.5 1013.7 0.0
04/10:58am 12.8 11.5 12.6 99 0.1 SW 11 15 6 8 1016.5 1013.7 0.0
04/10:30am 11.8 10.7 11.8 100 0.0 S 9 11 5 6 1016.7 1013.8 0.0
04/10:00am 11.6 10.8 11.6 100 0.0 SW 7 11 4 6 1016.8 1013.9 0.0
04/09:30am 10.7 9.2 10.7 100 0.0 S 9 13 5 7 1016.8 1013.9 0.0
04/09:00am 10.6 9.1 10.6 100 0.0 SSW 9 13 5 7 1016.8 1013.9 0.0
04/08:30am 10.4 9.4 10.4 100 0.0 SW 6 9 3 5 1016.5 1013.7 0.0
04/08:00am 9.8 8.7 9.8 100 0.0 W 6 9 3 5 1016.2 1013.3 0.0
04/07:30am 9.5 8.3 9.5 100 0.0 SW 6 9 3 5 1016.0 1013.1 0.0
04/07:00am 8.7 7.1 8.7 100 0.0 S 7 7 4 4 1015.6 1012.7 0.0
04/06:30am 7.7 7.2 7.7 100 0.0 CALM 0 0 0 0 1015.2 1012.3 0.0
04/05:30am 7.5 5.2 7.4 99 0.0 NNE 9 13 5 7 1014.8 1011.9 0.0
04/05:00am 7.8 5.6 7.7 99 0.0 NE 9 15 5 8 1015.1 1012.2 0.0
04/04:30am 7.3 4.6 7.2 99 0.0 NNE 11 15 6 8 1015.3 1012.5 0.0
04/04:10am 6.7 4.2 6.6 99 0.0 NE 9 13 5 7 1015.3 1012.5 0.0
04/04:00am 6.6 3.7 6.5 99 0.0 NNE 11 13 6 7 1015.5 1012.6 0.0
04/03:48am 8.2 5.3 8.1 99 0.1 N 13 13 7 7 1015.5 1012.6 0.0
04/03:30am 6.6 4.1 6.5 99 0.0 NNE 9 11 5 6 1015.7 1012.8 0.0
04/03:00am 7.7 6.0 7.6 99 0.0 N 6 9 3 5 1015.9 1013.0 0.0
04/02:30am 7.1 6.3 6.5 96 0.3 CALM 0 7 0 4 1016.3 1013.5 0.0
04/02:00am 8.2 7.5 6.8 91 0.7 CALM 0 0 0 0 1016.8 1013.9 0.0
04/01:30am 9.9 8.5 9.6 98 0.2 N 7 9 4 5 1017.1 1014.2 0.0
04/01:00am 10.4 9.4 10.2 99 0.1 N 6 7 3 4 1017.3 1014.5 0.0
04/12:30am 9.4 7.6 9.3 99 0.1 N 9 11 5 6 1017.3 1014.5 0.0
 
Date/Time
EDT
Tmp

°C
App
Tmp
°C
Dew
Point
°C
Rel
Hum
%
Delta-T

°C
Wind Press
QNH
hPa
Press
MSL
hPa
Rain
since
9 am
mm
Dir
 
Spd
km/h
Gust
km/h
Spd
kts
Gust
kts
03/11:30pm 10.1 8.4 9.9 99 0.1 NNE 9 11 5 6 1017.8 1014.9 0.0
03/11:00pm 10.7 8.3 10.2 97 0.3 NNE 13 13 7 7 1017.9 1015.0 0.0
03/10:30pm 11.4 9.1 10.6 95 0.4 NNE 13 17 7 9 1018.0 1015.1 0.0
03/09:30pm 12.3 10.7 10.2 87 1.1 NNE 9 13 5 7 1017.8 1014.9 0.0
03/09:00pm 13.3 12.2 10.8 85 1.4 NNE 7 9 4 5 1017.5 1014.7 0.0
03/08:30pm 14.0 11.2 11.2 83 1.6 NNE 17 22 9 12 1017.0 1014.1 0.0
03/08:00pm 15.1 12.0 12.1 82 1.7 NNE 20 28 11 15 1016.5 1013.7 0.0
03/07:30pm 17.0 14.2 12.5 75 2.6 NE 19 24 10 13 1016.1 1013.2 0.0
03/07:00pm 19.0 16.1 13.0 68 3.5 ENE 20 30 11 16 1015.6 1012.7 0.0
03/06:30pm 20.4 17.9 13.6 65 4.1 ENE 19 26 10 14 1015.5 1012.6 0.0
03/05:30pm 23.3 22.2 12.0 49 6.7 NE 9 17 5 9 1015.1 1012.2 0.0
03/05:00pm 24.1 23.4 12.1 47 7.1 NE 7 13 4 7 1015.0 1012.1 0.0
03/04:30pm 24.2 24.0 13.7 52 6.4 NNE 7 13 4 7 1015.1 1012.2 0.0
03/04:00pm 24.1 22.8 13.6 52 6.4 NNE 13 17 7 9 1015.3 1012.5 0.0
03/03:30pm 22.9 21.5 13.4 55 5.7 NNE 13 19 7 10 1015.8 1012.9 0.0
03/03:00pm 23.0 22.0 12.3 51 6.3 ESE 9 13 5 7 1016.1 1013.2 0.0
03/02:30pm 22.9 22.7 13.7 56 5.6 SE 7 11 4 6 1016.7 1013.8 0.0
03/02:00pm 22.0 21.7 12.8 56 5.5 ENE 6 9 3 5 1016.9 1014.0 0.0
03/01:30pm 21.4 21.8 13.8 62 4.6 NNE 4 7 2 4 1017.1 1014.2 0.0
03/01:00pm 20.0 20.2 13.2 65 4.0 ESE 4 7 2 4 1017.4 1014.6 0.0
03/12:30pm 18.7 18.9 12.9 69 3.4 SSE 4 7 2 4 1017.8 1014.9 0.0
03/12:00pm 18.5 19.6 13.4 72 3.0 CALM 0 0 0 0 1018.1 1015.2 0.0
03/11:30am 16.8 16.7 13.3 80 2.1 N 6 11 3 6 1018.4 1015.6 0.0
03/11:00am 15.5 16.0 12.8 84 1.6 SE 2 6 1 3 1018.5 1015.7 0.0
03/10:41am 15.3 15.1 13.5 89 1.1 SW 7 13 4 7 1019.0 1016.1 0.0
03/10:30am 14.8 14.0 12.8 88 1.2 WSW 9 13 5 7 1019.2 1016.4 0.0
03/10:00am 14.3 14.0 13.2 93 0.6 WSW 7 11 4 6 1019.1 1016.2 0.0
03/09:38am 13.8 13.5 13.2 96 0.3 SSW 7 11 4 6 1018.7 1015.9 0.0
03/09:30am 13.7 13.0 13.2 97 0.3 SW 9 11 5 6 1018.6 1015.8 0.0
03/09:00am 13.5 12.4 13.2 98 0.2 SW 11 13 6 7 1018.3 1015.5 0.0
03/08:30am 13.2 14.1 13.0 99 0.1 CALM 0 0 0 0 1018.4 1015.6 0.0
03/08:28am 13.2 14.1 13.0 99 0.1 CALM 0 0 0 0 1018.5 1015.7 0.0
03/08:15am 13.2 14.1 13.0 99 0.1 CALM 0 0 0 0 1018.2 1015.3 0.0
03/08:00am 13.0 13.9 12.8 99 0.1 CALM 0 0 0 0 1018.0 1015.1 0.0
03/07:30am 12.6 13.4 12.4 99 0.1 CALM 0 2 0 1 1017.4 1014.6 0.0
03/07:00am 12.5 11.5 12.3 99 0.1 NE 9 11 5 6 1016.9 1014.0 0.0
03/06:30am 12.5 11.5 12.3 99 0.1 NNE 9 13 5 7 1016.3 1013.5 0.0
03/06:00am 12.4 10.6 12.2 99 0.1 NE 13 15 7 8 1016.1 1013.2 0.0
03/05:30am 12.4 11.0 12.2 99 0.1 NE 11 15 6 8 1016.0 1013.1 0.0
03/05:00am 12.5 10.4 12.3 99 0.1 NNE 15 17 8 9 1015.9 1013.0 0.0
03/04:30am 12.4 10.6 12.2 99 0.1 NE 13 13 7 7 1016.1 1013.2 0.0
03/04:00am 12.4 10.2 12.2 99 0.1 NNE 15 17 8 9 1016.1 1013.2 0.0
03/03:30am 12.5 10.8 12.3 99 0.1 NE 13 15 7 8 1016.2 1013.3 0.0
03/03:00am 12.6 10.9 12.4 99 0.1 NE 13 15 7 8 1016.4 1013.6 0.0
03/02:30am 12.5 10.8 12.3 99 0.1 NNE 13 17 7 9 1016.5 1013.7 0.0
03/02:00am 12.6 10.5 12.4 99 0.1 NNE 15 17 8 9 1017.1 1014.2 0.0
03/01:30am 12.7 11.0 12.4 98 0.2 NE 13 15 7 8 1017.5 1014.7 0.0
03/01:00am 12.5 10.8 12.3 99 0.1 NNE 13 15 7 8 1017.9 1015.0 0.0
03/12:30am 12.6 10.9 12.3 98 0.2 NNE 13 15 7 8 1018.2 1015.3 0.0
03/12:00am 12.6 10.9 12.4 99 0.1 NNE 13 15 7 8 1018.2 1015.3 0.0
 
Date/Time
EDT
Tmp

°C
App
Tmp
°C
Dew
Point
°C
Rel
Hum
%
Delta-T

°C
Wind Press
QNH
hPa
Press
MSL
hPa
Rain
since
9 am
mm
Dir
 
Spd
km/h
Gust
km/h
Spd
kts
Gust
kts
02/11:30pm 12.5 10.7 12.0 97 0.3 NNE 13 17 7 9 1018.6 1015.8 0.0
02/11:00pm 12.9 10.8 12.3 96 0.3 NE 15 19 8 10 1018.4 1015.6 0.0
02/10:30pm 13.0 11.3 12.4 96 0.3 NE 13 17 7 9 1019.0 1016.1 0.0
02/10:00pm 13.1 10.6 12.3 95 0.5 NE 17 20 9 11 1018.4 1015.6 0.0
02/09:30pm 13.1 10.2 12.3 95 0.5 NE 19 20 10 11 1018.3 1015.5 0.0
02/09:00pm 13.3 10.2 12.2 93 0.6 NE 20 24 11 13 1017.9 1015.0 0.0
02/08:30pm 13.5 10.5 12.1 91 0.8 NE 19 24 10 13 1017.5 1014.7 0.0
02/08:00pm 14.3 12.1 12.0 86 1.3 ENE 15 24 8 13 1017.2 1014.3 0.0
02/07:30pm 15.4 12.2 11.8 79 2.0 ENE 20 33 11 18 1016.7 1013.8 0.0
02/07:00pm 17.0 12.3 11.9 72 2.9 ENE 28 33 15 18 1016.3 1013.5 0.0
02/06:30pm 17.7 12.9 11.5 67 3.5 ENE 28 33 15 18 1016.3 1013.5 0.0
02/06:00pm 19.1 14.4 12.1 64 4.1 ENE 28 35 15 19 1015.9 1013.0 0.0
02/05:30pm 20.4 16.9 12.1 59 4.8 NE 22 32 12 17 1016.4 1013.6 0.0
02/05:00pm 21.9 16.3 8.8 43 7.3 NNE 28 37 15 20 1016.3 1013.5 0.0
02/04:30pm 21.7 16.4 8.6 43 7.2 NE 26 32 14 17 1016.5 1013.7 0.0
02/04:00pm 21.4 16.0 8.0 42 7.3 NNE 26 35 14 19 1016.8 1013.9 0.0
02/03:30pm 21.4 16.0 8.0 42 7.3 NE 26 39 14 21 1017.1 1014.2 0.0
02/03:00pm 21.3 15.9 8.2 43 7.2 NNE 26 33 14 18 1017.4 1014.6 0.0
02/02:30pm 20.6 15.9 7.6 43 7.0 NNE 22 33 12 18 1017.9 1015.0 0.0
02/02:00pm 20.0 15.9 7.7 45 6.6 NE 19 30 10 16 1018.1 1015.2 0.0
02/01:30pm 18.7 14.3 7.2 47 6.1 NE 20 28 11 15 1018.6 1015.8 0.0
02/01:00pm 18.1 12.8 6.9 48 5.9 NE 24 32 13 17 1018.8 1016.0 0.0
02/12:30pm 17.2 11.7 6.1 48 5.7 NE 24 32 13 17 1019.3 1016.5 0.0
02/12:00pm 16.2 11.1 5.8 50 5.3 NE 22 28 12 15 1019.9 1017.1 0.0
02/11:30am 15.1 10.1 4.8 50 5.1 NE 20 26 11 14 1020.4 1017.6 0.0
02/11:00am 14.2 9.0 5.6 56 4.3 NNE 22 30 12 16 1020.8 1018.0 0.0
02/10:30am 13.4 8.8 6.7 64 3.4 NNE 20 26 11 14 1021.1 1018.4 0.0
02/10:00am 11.9 7.1 5.5 65 3.1 NNE 20 26 11 14 1021.1 1018.4 0.0
02/09:30am 11.1 7.2 5.4 68 2.8 NE 15 20 8 11 1021.1 1018.4 0.0
02/09:00am 9.8 7.0 6.9 82 1.4 NE 11 15 6 8 1021.6 1018.8 2.6
02/08:30am 7.5 5.9 6.4 93 0.5 NE 4 7 2 4 1021.5 1018.7 2.6
02/08:00am 4.9 2.4 4.8 99 0.0 NNE 7 9 4 5 1021.4 1018.6 2.6
02/07:30am 2.1 0.4 2.0 99 0.0 CALM 0 0 0 0 1020.9 1018.1 2.6
02/07:00am 0.7 -1.2 0.4 98 0.1 CALM 0 0 0 0 1021.0 1018.2 2.6
02/06:30am 1.2 -0.6 0.9 98 0.1 CALM 0 0 0 0 1020.7 1017.9 2.6
02/06:00am 0.9 -1.1 0.2 95 0.3 CALM 0 0 0 0 1020.5 1017.7 2.6
02/05:30am 1.8 0.0 1.2 96 0.2 CALM 0 0 0 0 1020.4 1017.6 2.6
02/05:00am 2.8 0.4 1.9 94 0.4 NW 4 7 2 4 1020.2 1017.4 2.6
02/04:30am 4.6 1.7 4.5 99 0.0 E 9 13 5 7 1019.7 1016.9 2.6
02/04:00am 4.0 2.7 3.9 99 0.0 CALM 0 0 0 0 1020.4 1017.6 2.6
02/03:30am 4.0 1.5 3.9 99 0.0 N 6 9 3 5 1020.2 1017.4 2.6
02/03:00am 2.8 0.8 2.5 98 0.1 W 2 7 1 4 1019.6 1016.8 2.6
02/02:30am 4.0 1.5 3.9 99 0.0 N 6 9 3 5 1019.4 1016.6 2.6
02/02:00am 3.6 0.7 2.6 93 0.4 NE 7 9 4 5 1019.7 1016.9 2.6
02/01:30am 6.2 4.0 6.1 99 0.0 SW 7 9 4 5 1019.8 1017.0 2.6
02/01:00am 4.8 3.6 4.7 99 0.0 CALM 0 0 0 0 1019.5 1016.7 2.6
02/12:30am 5.4 4.0 5.3 99 0.0 NNE 2 6 1 3 1019.2 1016.4 2.6
02/12:00am 5.4 4.0 5.3 99 0.0 WSW 2 7 1 4 1019.5 1016.7 2.6
 
Date/Time
EDT
Tmp

°C
App
Tmp
°C
Dew
Point
°C
Rel
Hum
%
Delta-T

°C
Wind Press
QNH
hPa
Press
MSL
hPa
Rain
since
9 am
mm
Dir
 
Spd
km/h
Gust
km/h
Spd
kts
Gust
kts
01/11:30pm 6.0 4.7 5.9 99 0.0 NNE 2 7 1 4 1019.5 1016.7 2.6
01/11:00pm 5.5 3.5 4.5 93 0.5 NNE 4 7 2 4 1019.3 1016.5 2.6
01/10:30pm 6.3 5.2 5.1 92 0.6 CALM 0 0 0 0 1019.6 1016.8 2.6
01/10:00pm 6.5 5.5 5.6 94 0.4 CALM 0 2 0 1 1019.3 1016.5 2.6
01/09:30pm 7.5 5.2 5.8 89 0.8 S 7 9 4 5 1019.0 1016.1 2.6
01/09:00pm 9.3 6.8 6.6 83 1.3 SSW 9 17 5 9 1018.5 1015.7 2.6
01/08:30pm 11.0 7.7 7.9 81 1.6 SSW 15 20 8 11 1017.8 1014.9 2.6
01/08:00pm 11.3 8.1 8.3 82 1.5 SSW 15 20 8 11 1017.2 1014.3 2.6
01/07:30pm 12.1 7.2 8.6 79 1.8 SSW 24 33 13 18 1016.2 1013.3 2.6
01/07:00pm 12.5 8.5 9.1 80 1.8 SSW 20 24 11 13 1016.1 1013.2 2.6
01/06:30pm 12.6 8.2 9.1 79 1.9 SSW 22 33 12 18 1015.5 1012.6 2.6
01/06:00pm 13.2 7.6 8.7 74 2.4 SSW 28 39 15 21 1015.0 1012.1 2.6
01/05:30pm 13.2 6.8 8.7 74 2.4 SSW 32 39 17 21 1014.4 1011.4 2.6
01/05:00pm 12.8 6.3 8.3 74 2.3 SSW 32 43 17 23 1014.6 1011.7 2.6
01/04:30pm 12.8 6.3 9.1 78 2.0 SSW 33 43 18 23 1014.1 1011.2 2.6
01/04:00pm 13.1 6.9 9.9 81 1.7 SSW 33 43 18 23 1013.4 1010.4 2.6
01/03:34pm 13.2 6.5 9.8 80 1.8 SSW 35 44 19 24 1013.2 1010.2 2.6

Latest Capital City Observations: Canberra | Sydney | Melbourne | Brisbane | Adelaide | Perth | Hobart | Darwin

Other Formats:

Comma delimited format used in spreadsheet applications
http://www.bom.gov.au/fwo/IDN60903/IDN60903.94921.axf

JavaScript Object Notation format (JSON) in row-major order
http://www.bom.gov.au/fwo/IDN60903/IDN60903.94921.json